Time;durP1;ratioP1;P1;durP2;ratioP2;P2;SDS_P1;SDS_P2;PMS_P1;PMS_P2;Temp;Humidity;BMP_temperature;BMP_pressure;BME280_temperature;BME280_humidity;BME280_pressure;Samples;Min_cycle;Max_cycle;Signal;HPM_P1;HPM_P2
2023/10/19 00:00:50;;;;;;;29.50;19.23;;;6.90;99.90;;;;;;5073402;28;20494;-20
2023/10/19 00:03:17;;;;;;;30.55;19.30;;;6.70;99.90;;;;;;5073321;28;20087;-20
2023/10/19 00:05:47;;;;;;;34.88;20.42;;;6.90;99.90;;;;;;5072145;28;20121;-20
2023/10/19 00:10:42;;;;;;;32.28;21.10;;;6.90;99.90;;;;;;5073851;28;20219;-21
2023/10/19 00:13:11;;;;;;;32.80;22.67;;;6.70;99.90;;;;;;5055318;28;20131;-20
2023/10/19 00:15:46;;;;;;;39.03;21.27;;;7.10;99.90;;;;;;5073209;28;20095;-21
2023/10/19 00:23:18;;;;;;;39.95;23.20;;;7.10;99.90;;;;;;5073718;28;20063;-21
2023/10/19 00:25:53;;;;;;;32.42;21.35;;;6.60;99.90;;;;;;5071980;28;20040;-21
2023/10/19 00:28:19;;;;;;;35.65;22.77;;;6.70;99.90;;;;;;5073693;28;20094;-21
2023/10/19 00:30:46;;;;;;;39.03;23.45;;;6.80;99.90;;;;;;5073129;28;20504;-21
2023/10/19 00:33:19;;;;;;;40.65;24.73;;;6.90;99.90;;;;;;5071880;28;20044;-21
2023/10/19 00:35:57;;;;;;;41.00;26.10;;;6.80;99.90;;;;;;5075784;28;20098;-21
2023/10/19 00:43:42;;;;;;;40.88;25.02;;;7.00;99.90;;;;;;5076548;28;20513;-21
2023/10/19 00:46:20;;;;;;;40.97;24.42;;;7.20;99.90;;;;;;5076814;28;20052;-21
2023/10/19 00:48:51;;;;;;;39.78;26.48;;;6.80;99.90;;;;;;5076780;28;20447;-21
2023/10/19 00:52:11;;;;;;;40.55;26.02;;;7.30;99.90;;;;;;5076082;28;20502;-22
2023/10/19 00:54:26;;;;;;;41.63;25.85;;;6.90;99.90;;;;;;5070301;28;20518;-22
2023/10/19 00:56:55;;;;;;;43.45;25.95;;;7.00;99.90;;;;;;5076426;28;20074;-21
2023/10/19 00:59:24;;;;;;;43.00;25.83;;;7.00;99.90;;;;;;5075358;28;20458;-21
2023/10/19 01:02:03;;;;;;;45.83;27.15;;;7.30;99.90;;;;;;5075733;28;20072;-21
2023/10/19 01:04:33;;;;;;;45.13;28.13;;;7.10;99.90;;;;;;5076748;28;20071;-21
2023/10/19 01:09:34;;;;;;;44.42;27.15;;;7.30;99.90;;;;;;5076917;28;20049;-21
2023/10/19 01:12:05;;;;;;;43.58;28.33;;;7.00;99.90;;;;;;5076643;28;20457;-21
2023/10/19 01:14:32;;;;;;;45.88;29.23;;;7.10;99.90;;;;;;5076000;28;20090;-21
2023/10/19 01:16:58;;;;;;;47.88;29.58;;;6.90;99.90;;;;;;5075882;28;20040;-22
2023/10/19 01:19:27;;;;;;;52.35;29.30;;;6.90;99.90;;;;;;5075863;28;20052;-22
2023/10/19 01:21:59;;;;;;;45.50;27.52;;;7.30;99.90;;;;;;5075464;28;20505;-22
2023/10/19 01:24:43;;;;;;;50.60;28.77;;;7.00;99.90;;;;;;5075831;28;20567;-22
2023/10/19 01:27:10;;;;;;;44.88;29.13;;;7.30;99.90;;;;;;5076645;28;20044;-23
2023/10/19 01:29:37;;;;;;;55.75;31.08;;;7.20;99.90;;;;;;5075061;28;20053;-23
2023/10/19 01:32:08;;;;;;;49.03;30.35;;;7.00;99.90;;;;;;5075646;28;20049;-24
2023/10/19 01:34:35;;;;;;;50.92;32.35;;;7.00;99.90;;;;;;5075219;28;20413;-24
2023/10/19 01:37:04;;;;;;;48.10;29.98;;;7.00;99.90;;;;;;5075567;28;20406;-22
2023/10/19 01:39:36;;;;;;;56.10;32.42;;;7.30;99.90;;;;;;5075508;28;20049;-23
2023/10/19 01:42:07;;;;;;;53.93;31.33;;;7.20;99.90;;;;;;5075384;28;20479;-23
2023/10/19 01:44:35;;;;;;;56.90;32.13;;;7.30;99.90;;;;;;5075019;28;20050;-23
2023/10/19 01:47:03;;;;;;;56.40;31.50;;;7.30;99.90;;;;;;5074352;28;20052;-24
2023/10/19 01:49:31;;;;;;;56.63;32.40;;;7.30;99.90;;;;;;5074585;28;20048;-23
2023/10/19 01:51:57;;;;;;;60.83;33.08;;;7.10;99.90;;;;;;5076333;28;20093;-23
2023/10/19 01:54:24;;;;;;;55.60;31.83;;;7.20;99.90;;;;;;5075734;28;20378;-23
2023/10/19 01:56:56;;;;;;;53.78;30.73;;;7.00;99.90;;;;;;5075717;28;20135;-23
2023/10/19 01:59:30;;;;;;;56.63;32.35;;;7.40;99.90;;;;;;5075150;28;20044;-23
2023/10/19 02:01:57;;;;;;;56.67;32.30;;;7.20;99.90;;;;;;5074600;28;20600;-24
2023/10/19 02:04:25;;;;;;;53.08;30.63;;;7.10;99.90;;;;;;5074996;28;20493;-24
2023/10/19 02:06:54;;;;;;;52.33;31.58;;;7.20;99.90;;;;;;5075021;28;20053;-24
2023/10/19 02:09:32;;;;;;;54.05;32.30;;;7.30;99.90;;;;;;5073956;28;20064;-24
2023/10/19 02:11:58;;;;;;;52.78;32.28;;;7.20;99.90;;;;;;5075468;28;20051;-23
2023/10/19 02:14:26;;;;;;;56.53;31.13;;;7.30;99.90;;;;;;5074635;28;20382;-24
2023/10/19 02:16:59;;;;;;;54.80;31.30;;;7.30;99.90;;;;;;5074738;28;20048;-24
2023/10/19 02:19:29;;;;;;;54.25;31.13;;;7.10;99.90;;;;;;5074854;28;20379;-24
2023/10/19 02:22:02;;;;;;;57.40;32.95;;;7.40;99.90;;;;;;5074860;28;20055;-24
2023/10/19 02:24:28;;;;;;;52.08;31.67;;;7.10;99.90;;;;;;5075448;28;20083;-24
2023/10/19 02:26:57;;;;;;;50.65;31.95;;;7.20;99.90;;;;;;5073400;28;20083;-24
2023/10/19 02:29:23;;;;;;;49.05;30.67;;;7.20;99.90;;;;;;5074488;28;20091;-24
2023/10/19 02:31:53;;;;;;;48.75;30.48;;;7.50;99.90;;;;;;5073193;28;20091;-24
2023/10/19 02:34:19;;;;;;;51.42;31.77;;;7.10;99.90;;;;;;5073735;28;20493;-24
2023/10/19 02:36:47;;;;;;;48.25;29.42;;;7.40;99.90;;;;;;5073385;28;20135;-24
2023/10/19 02:39:14;;;;;;;53.03;30.95;;;7.10;99.90;;;;;;5073348;28;20470;-24
2023/10/19 02:41:42;;;;;;;44.03;26.63;;;7.40;99.90;;;;;;5074185;28;20045;-24
2023/10/19 02:44:09;;;;;;;57.75;32.80;;;7.10;99.90;;;;;;5074190;28;20044;-25
2023/10/19 02:46:41;;;;;;;54.17;30.42;;;7.30;99.90;;;;;;5074219;28;20041;-24
2023/10/19 02:49:11;;;;;;;47.42;29.52;;;7.30;99.90;;;;;;5074784;28;20066;-24
2023/10/19 02:51:45;;;;;;;46.47;27.63;;;7.10;99.90;;;;;;5074111;28;20045;-24
2023/10/19 02:54:19;;;;;;;51.33;29.52;;;7.50;99.90;;;;;;5073798;28;20518;-24
2023/10/19 02:56:49;;;;;;;51.50;28.48;;;7.20;99.90;;;;;;5074044;28;20040;-24
2023/10/19 02:59:16;;;;;;;49.67;27.90;;;7.20;99.90;;;;;;5072906;28;20052;-23
2023/10/19 03:01:45;;;;;;;51.22;28.52;;;7.20;99.90;;;;;;5073596;28;20063;-23
2023/10/19 03:04:15;;;;;;;51.60;30.35;;;7.50;99.90;;;;;;5073922;28;20398;-24
2023/10/19 03:06:41;;;;;;;51.92;28.08;;;7.50;99.90;;;;;;5073865;28;20080;-24
2023/10/19 03:09:28;;;;;;;42.47;26.42;;;7.20;99.90;;;;;;5073153;28;20372;-24
2023/10/19 03:11:59;;;;;;;45.17;26.05;;;7.20;99.90;;;;;;5073838;28;20041;-25
2023/10/19 03:14:25;;;;;;;46.70;27.88;;;7.40;99.90;;;;;;5073298;28;20040;-24
2023/10/19 03:16:54;;;;;;;53.30;29.98;;;7.30;99.90;;;;;;5073762;28;20053;-24
2023/10/19 03:19:20;;;;;;;51.72;27.08;;;7.50;99.90;;;;;;5073979;28;20372;-24
2023/10/19 03:21:49;;;;;;;51.88;27.80;;;7.20;99.90;;;;;;5072443;28;20048;-24
2023/10/19 03:27:12;;;;;;;42.78;25.15;;;7.60;99.90;;;;;;5073988;28;20403;-24
2023/10/19 03:29:46;;;;;;;44.58;27.85;;;7.60;99.90;;;;;;5072875;28;20425;-24
2023/10/19 03:32:12;;;;;;;52.22;27.85;;;7.50;99.90;;;;;;5074250;28;20048;-24
2023/10/19 03:34:38;;;;;;;43.00;25.38;;;7.40;99.90;;;;;;5073596;28;20089;-23
2023/10/19 03:37:12;;;;;;;49.33;27.25;;;7.60;99.90;;;;;;5072995;28;20049;-24
2023/10/19 03:39:38;;;;;;;46.55;26.20;;;7.60;99.90;;;;;;5074165;28;20044;-24
2023/10/19 03:42:07;;;;;;;46.10;26.42;;;7.60;99.90;;;;;;5073719;28;20051;-24
2023/10/19 03:44:53;;;;;;;49.47;27.80;;;7.20;99.90;;;;;;5073490;28;20052;-24
2023/10/19 03:47:20;;;;;;;46.40;26.38;;;7.20;99.90;;;;;;5072847;28;20052;-24
2023/10/19 03:49:47;;;;;;;45.33;26.67;;;7.60;99.90;;;;;;5074043;28;20052;-24
2023/10/19 03:54:40;;;;;;;49.15;27.25;;;7.40;99.90;;;;;;5073418;28;20048;-23
2023/10/19 03:57:22;;;;;;;43.88;24.13;;;7.70;99.90;;;;;;5055797;28;20088;-21
2023/10/19 03:59:57;;;;;;;44.30;24.53;;;7.40;99.90;;;;;;5073437;28;20056;-22
2023/10/19 04:02:35;;;;;;;46.42;24.38;;;7.80;99.90;;;;;;5073656;28;20056;-22
2023/10/19 04:05:03;;;;;;;44.00;26.10;;;7.30;99.90;;;;;;5073029;28;20454;-22
2023/10/19 04:07:31;;;;;;;38.17;23.45;;;7.60;99.90;;;;;;5073327;28;20048;-22
2023/10/19 04:12:35;;;;;;;38.53;22.50;;;7.30;99.90;;;;;;5077205;28;20049;-22
2023/10/19 04:15:10;;;;;;;47.28;24.95;;;7.30;99.90;;;;;;5076406;28;20052;-22
2023/10/19 04:17:39;;;;;;;50.85;26.17;;;7.80;99.90;;;;;;5076703;28;20553;-23
2023/10/19 04:22:48;;;;;;;44.88;25.15;;;7.40;99.90;;;;;;5076995;28;20052;-22
2023/10/19 04:25:18;;;;;;;42.20;24.42;;;7.80;99.90;;;;;;5077408;28;20478;-22
2023/10/19 04:27:45;;;;;;;48.38;25.83;;;7.90;99.90;;;;;;5076896;28;20070;-23
2023/10/19 04:30:15;;;;;;;45.15;23.90;;;7.70;99.90;;;;;;5076149;28;20041;-22
2023/10/19 04:32:42;;;;;;;39.60;23.48;;;7.90;99.90;;;;;;5077546;28;20088;-22
2023/10/19 04:35:09;;;;;;;40.78;23.30;;;7.90;99.90;;;;;;5075733;28;20127;-22
2023/10/19 04:37:35;;;;;;;38.67;22.35;;;7.80;99.90;;;;;;5075528;28;20052;-22
2023/10/19 04:40:02;;;;;;;37.53;22.70;;;8.00;99.90;;;;;;5076622;28;20502;-23
2023/10/19 04:42:28;;;;;;;43.15;22.58;;;8.00;99.90;;;;;;5076590;28;20057;-22
2023/10/19 04:44:56;;;;;;;39.38;21.65;;;7.90;99.90;;;;;;5076530;28;20044;-22
2023/10/19 04:47:23;;;;;;;35.17;19.70;;;7.70;99.90;;;;;;5076508;28;20048;-22
2023/10/19 04:49:49;;;;;;;36.50;20.95;;;7.60;99.90;;;;;;5076419;28;20087;-22
2023/10/19 04:52:15;;;;;;;32.78;19.17;;;7.50;99.90;;;;;;5076393;28;20106;-22
2023/10/19 04:54:42;;;;;;;33.83;19.95;;;8.00;99.90;;;;;;5076337;28;20052;-22
2023/10/19 04:57:07;;;;;;;35.25;20.13;;;7.80;99.90;;;;;;5075185;28;20044;-22
2023/10/19 04:59:33;;;;;;;31.60;18.70;;;8.10;99.90;;;;;;5075332;28;20059;-23
2023/10/19 05:02:02;;;;;;;34.38;20.25;;;7.90;99.90;;;;;;5057707;28;20457;-23
2023/10/19 05:04:29;;;;;;;35.30;20.33;;;7.60;99.90;;;;;;5059307;28;20053;-23
2023/10/19 05:06:55;;;;;;;29.67;18.60;;;7.90;99.90;;;;;;5076145;28;20102;-23
2023/10/19 05:09:21;;;;;;;36.20;19.90;;;7.50;99.90;;;;;;5076087;28;20375;-24
2023/10/19 05:11:48;;;;;;;31.30;18.98;;;7.80;99.90;;;;;;5076353;28;20130;-23
2023/10/19 05:14:13;;;;;;;34.00;19.67;;;8.10;99.90;;;;;;5076581;28;20053;-23
2023/10/19 05:16:40;;;;;;;31.25;18.52;;;8.00;99.90;;;;;;5058095;28;20044;-23
2023/10/19 05:19:05;;;;;;;34.67;19.67;;;8.20;99.90;;;;;;5075884;28;20044;-24
2023/10/19 05:21:31;;;;;;;34.17;20.38;;;7.70;99.90;;;;;;5074657;28;20049;-23
2023/10/19 05:24:00;;;;;;;41.67;22.05;;;7.60;99.90;;;;;;5075787;28;20052;-23
2023/10/19 05:26:26;;;;;;;39.45;23.02;;;7.90;99.90;;;;;;5074615;28;20051;-23
2023/10/19 05:28:52;;;;;;;33.97;20.38;;;7.80;99.90;;;;;;5075730;28;20047;-23
2023/10/19 05:31:18;;;;;;;39.00;20.92;;;7.50;99.90;;;;;;5075676;28;20040;-23
2023/10/19 05:33:44;;;;;;;30.50;19.23;;;8.10;99.90;;;;;;5074693;28;20081;-23
2023/10/19 05:36:10;;;;;;;32.90;19.23;;;8.20;99.90;;;;;;5075831;28;20097;-23
2023/10/19 05:38:35;;;;;;;32.10;18.20;;;7.90;99.90;;;;;;5074979;28;20044;-23
2023/10/19 05:41:01;;;;;;;33.53;19.05;;;8.20;99.90;;;;;;5074383;28;20559;-23
2023/10/19 05:43:28;;;;;;;31.58;18.77;;;7.90;99.90;;;;;;5057709;28;20052;-23
2023/10/19 05:45:53;;;;;;;33.13;18.35;;;8.20;99.90;;;;;;5074782;28;20037;-23
2023/10/19 05:48:20;;;;;;;30.65;18.35;;;8.00;99.90;;;;;;5058324;28;20049;-23
2023/10/19 05:50:46;;;;;;;30.05;17.80;;;7.60;99.90;;;;;;5074141;28;20059;-23
2023/10/19 05:53:13;;;;;;;30.08;18.67;;;7.90;99.90;;;;;;5075315;28;20510;-23
2023/10/19 05:55:39;;;;;;;31.08;18.05;;;7.60;99.90;;;;;;5075193;28;20049;-21
2023/10/19 05:58:05;;;;;;;28.13;16.20;;;7.60;99.90;;;;;;5073953;28;20044;-21
2023/10/19 06:00:31;;;;;;;29.63;16.65;;;7.70;99.90;;;;;;5073647;28;20127;-22
2023/10/19 06:03:00;;;;;;;24.40;14.02;;;7.70;99.90;;;;;;5074328;28;20139;-21
2023/10/19 06:05:25;;;;;;;24.55;14.27;;;8.20;99.90;;;;;;5075021;28;20520;-21
2023/10/19 06:07:52;;;;;;;23.50;15.07;;;7.60;99.90;;;;;;5074843;28;20049;-21
2023/10/19 06:10:22;;;;;;;18.88;12.07;;;8.30;99.90;;;;;;5075163;28;20402;-21
2023/10/19 06:12:52;;;;;;;18.88;12.52;;;8.00;99.90;;;;;;5073600;28;20059;-22
2023/10/19 06:15:20;;;;;;;18.25;11.35;;;7.60;99.90;;;;;;5073693;28;20090;-22
2023/10/19 06:17:47;;;;;;;18.17;11.52;;;8.00;99.90;;;;;;5074747;28;20456;-22
2023/10/19 06:20:24;;;;;;;16.27;10.52;;;7.60;99.90;;;;;;5074615;28;20055;-22
2023/10/19 06:22:55;;;;;;;19.40;12.23;;;7.60;99.90;;;;;;5074700;28;20049;-22
2023/10/19 06:25:23;;;;;;;21.83;12.85;;;8.30;99.90;;;;;;5073070;28;20056;-23
2023/10/19 06:27:50;;;;;;;18.55;12.50;;;7.60;99.90;;;;;;5074532;28;20048;-23
2023/10/19 06:30:18;;;;;;;18.80;11.82;;;8.30;99.90;;;;;;5074493;28;20106;-22
2023/10/19 06:32:47;;;;;;;17.10;11.50;;;8.00;99.90;;;;;;5074539;28;20364;-22
2023/10/19 06:35:13;;;;;;;17.60;10.93;;;7.60;99.90;;;;;;5073448;28;20142;-23
2023/10/19 06:37:40;;;;;;;19.40;12.02;;;8.30;99.90;;;;;;5073192;28;20049;-23
2023/10/19 06:40:07;;;;;;;17.13;11.60;;;7.70;99.90;;;;;;5057668;28;20475;-23
2023/10/19 06:42:34;;;;;;;19.52;11.75;;;8.20;99.90;;;;;;5056977;28;20055;-23
2023/10/19 06:45:00;;;;;;;23.73;12.65;;;8.10;99.90;;;;;;5074775;28;20049;-23
2023/10/19 06:47:26;;;;;;;14.60;10.20;;;7.70;99.90;;;;;;5074149;28;20052;-23
2023/10/19 06:49:52;;;;;;;18.15;11.30;;;7.90;99.90;;;;;;5074127;28;20074;-23
2023/10/19 06:52:18;;;;;;;15.23;10.48;;;8.00;99.90;;;;;;5074073;28;20126;-23
2023/10/19 06:54:43;;;;;;;12.90;9.10;;;7.80;99.90;;;;;;5073098;28;20082;-23
2023/10/19 06:57:10;;;;;;;14.57;9.95;;;8.30;99.90;;;;;;5073800;28;20394;-22
2023/10/19 06:59:36;;;;;;;16.45;9.82;;;7.70;99.90;;;;;;5074255;28;20049;-22
2023/10/19 07:02:02;;;;;;;17.40;9.52;;;7.80;99.90;;;;;;5074095;28;20056;-22
2023/10/19 07:04:29;;;;;;;14.55;9.40;;;7.70;99.90;;;;;;5074224;28;20495;-23
2023/10/19 07:06:55;;;;;;;14.77;9.52;;;7.80;99.90;;;;;;5072670;28;20131;-23
2023/10/19 07:09:22;;;;;;;15.07;9.35;;;7.70;99.90;;;;;;5056194;28;20082;-23
2023/10/19 07:11:47;;;;;;;12.68;8.70;;;7.80;99.90;;;;;;5072629;28;20087;-22
2023/10/19 07:14:13;;;;;;;13.90;8.85;;;7.80;99.90;;;;;;5073799;28;20458;-22
2023/10/19 07:16:42;;;;;;;13.32;9.25;;;7.90;99.90;;;;;;5073431;28;20041;-22
2023/10/19 07:19:09;;;;;;;14.07;8.95;;;7.70;99.90;;;;;;5074497;28;20052;-23
2023/10/19 07:21:37;;;;;;;13.57;9.63;;;8.50;99.90;;;;;;5072781;28;20044;-23
2023/10/19 07:24:05;;;;;;;18.08;11.07;;;8.60;99.90;;;;;;5073710;28;20052;-23
2023/10/19 07:26:33;;;;;;;19.15;12.25;;;8.60;99.90;;;;;;5073125;28;20078;-23
2023/10/19 07:29:02;;;;;;;12.95;8.68;;;7.80;99.90;;;;;;5074232;28;20052;-23
2023/10/19 07:31:28;;;;;;;13.18;8.80;;;8.00;99.90;;;;;;5073619;28;20140;-23
2023/10/19 07:33:57;;;;;;;13.95;9.68;;;8.00;99.90;;;;;;5073575;28;20514;-23
2023/10/19 07:36:24;;;;;;;12.77;8.32;;;7.80;99.90;;;;;;5073264;28;20056;-23
2023/10/19 07:38:51;;;;;;;12.20;7.82;;;8.00;99.90;;;;;;5073589;28;20055;-23
2023/10/19 07:41:17;;;;;;;13.80;9.63;;;8.30;99.90;;;;;;5073451;28;20101;-23
2023/10/19 07:43:46;;;;;;;14.38;8.93;;;8.20;99.90;;;;;;5073516;28;20083;-23
2023/10/19 07:46:12;;;;;;;11.93;8.32;;;8.50;99.90;;;;;;5077364;28;20040;-23
2023/10/19 07:48:38;;;;;;;13.43;7.93;;;8.00;99.90;;;;;;5076410;28;20059;-23
2023/10/19 07:51:04;;;;;;;13.35;8.13;;;7.80;99.90;;;;;;5077575;28;20041;-23
2023/10/19 07:53:30;;;;;;;10.68;7.30;;;8.00;99.90;;;;;;5076538;28;20044;-23
2023/10/19 07:55:57;;;;;;;12.27;7.93;;;7.90;99.90;;;;;;5077746;28;20047;-23
2023/10/19 07:58:23;;;;;;;11.90;7.78;;;8.60;99.90;;;;;;5077469;28;20052;-22
2023/10/19 08:00:49;;;;;;;12.40;7.32;;;8.20;99.90;;;;;;5077109;28;20060;-23
2023/10/19 08:03:16;;;;;;;11.55;8.00;;;8.70;99.90;;;;;;5078125;28;20044;-23
2023/10/19 08:05:42;;;;;;;11.13;7.68;;;8.60;99.90;;;;;;5078141;28;20054;-23
2023/10/19 08:08:08;;;;;;;11.38;7.22;;;8.20;99.90;;;;;;5076255;28;20142;-23
2023/10/19 08:10:34;;;;;;;11.18;7.60;;;8.60;99.90;;;;;;5077718;28;20048;-23
2023/10/19 08:13:01;;;;;;;11.65;8.07;;;7.90;99.90;;;;;;5077098;28;20051;-22
2023/10/19 08:15:30;;;;;;;9.77;7.53;;;8.50;99.90;;;;;;5077083;28;20086;-23
2023/10/19 08:17:55;;;;;;;9.77;6.75;;;8.60;99.90;;;;;;5059409;28;20049;-23
2023/10/19 08:20:31;;;;;;;8.65;6.32;;;8.00;99.90;;;;;;5076916;28;20431;-22
2023/10/19 08:22:58;;;;;;;12.50;8.07;;;8.30;99.90;;;;;;5076947;28;20555;-23
2023/10/19 08:25:27;;;;;;;10.07;7.63;;;8.70;99.90;;;;;;5059692;28;20040;-23
2023/10/19 08:27:57;;;;;;;11.70;8.00;;;7.80;99.90;;;;;;5076523;28;20494;-23
2023/10/19 08:30:23;;;;;;;12.23;9.18;;;7.90;99.90;;;;;;5077051;28;20051;-22
2023/10/19 08:32:51;;;;;;;11.18;8.93;;;8.00;99.90;;;;;;5075549;28;20494;-23
2023/10/19 08:35:25;;;;;;;10.57;7.72;;;8.60;99.90;;;;;;5076759;28;20084;-23
2023/10/19 08:37:52;;;;;;;10.85;8.77;;;7.80;99.90;;;;;;5077563;28;20052;-23
2023/10/19 08:40:19;;;;;;;14.35;8.57;;;7.90;99.90;;;;;;5076790;28;20040;-22
2023/10/19 08:42:46;;;;;;;14.43;9.85;;;8.20;99.90;;;;;;5077104;28;20126;-22
2023/10/19 08:45:13;;;;;;;11.90;9.18;;;7.90;99.90;;;;;;5076486;28;20052;-23
2023/10/19 08:48:00;;;;;;;11.85;9.05;;;8.70;99.90;;;;;;5075525;28;20173;-22
2023/10/19 08:50:31;;;;;;;14.13;9.55;;;8.60;99.90;;;;;;5076769;28;20383;-22
2023/10/19 08:52:59;;;;;;;11.60;9.38;;;8.60;99.90;;;;;;5059089;28;20056;-22
2023/10/19 08:55:25;;;;;;;15.60;11.07;;;8.40;99.90;;;;;;5075851;28;20194;-22
2023/10/19 08:57:52;;;;;;;14.38;9.85;;;8.50;99.90;;;;;;5076289;28;20084;-22
2023/10/19 09:00:19;;;;;;;14.35;10.38;;;7.90;99.90;;;;;;5076235;28;20133;-22
2023/10/19 09:02:45;;;;;;;16.13;10.93;;;8.00;99.90;;;;;;5075856;28;20056;-22
2023/10/19 09:05:33;;;;;;;16.55;10.75;;;8.80;99.90;;;;;;5076958;28;20052;-22
2023/10/19 09:07:59;;;;;;;19.33;11.13;;;8.50;99.90;;;;;;5074773;28;20063;-23
2023/10/19 09:10:27;;;;;;;15.20;10.93;;;8.70;99.90;;;;;;5076875;28;20041;-23
2023/10/19 09:13:09;;;;;;;17.30;12.38;;;8.80;99.90;;;;;;5076839;28;20102;-22
2023/10/19 09:15:36;;;;;;;19.08;12.77;;;9.00;99.90;;;;;;5076284;28;20474;-22
2023/10/19 09:18:19;;;;;;;21.67;13.88;;;8.70;99.90;;;;;;5074723;28;20407;-22
2023/10/19 09:20:55;;;;;;;19.50;13.73;;;8.20;99.90;;;;;;5076463;28;20088;-23
2023/10/19 09:23:22;;;;;;;19.90;14.10;;;8.40;99.90;;;;;;5075945;28;20049;-22
2023/10/19 09:25:54;;;;;;;24.17;15.25;;;9.10;99.90;;;;;;5076617;28;20120;-22
2023/10/19 09:28:21;;;;;;;30.40;17.42;;;8.70;99.90;;;;;;5075831;28;20048;-22
2023/10/19 09:30:48;;;;;;;30.92;19.73;;;8.30;99.90;;;;;;5075783;28;20092;-22
2023/10/19 09:33:17;;;;;;;29.10;18.30;;;9.10;99.90;;;;;;5074717;28;20049;-22
2023/10/19 09:35:48;;;;;;;30.20;17.00;;;9.10;99.90;;;;;;5075625;28;20045;-22
2023/10/19 09:38:24;;;;;;;26.70;15.60;;;9.10;99.90;;;;;;5075642;28;20046;-22
2023/10/19 09:40:55;;;;;;;27.38;16.50;;;8.40;99.90;;;;;;5073978;28;20044;-22
2023/10/19 09:43:42;;;;;;;24.67;16.95;;;9.30;99.90;;;;;;5075528;28;20110;-22
2023/10/19 09:46:09;;;;;;;27.52;17.58;;;8.50;99.90;;;;;;5074165;28;20553;-22
2023/10/19 09:48:48;;;;;;;29.10;17.42;;;9.40;99.90;;;;;;5075403;28;20049;-22
2023/10/19 09:51:16;;;;;;;31.13;16.60;;;9.40;99.90;;;;;;5074216;28;20040;-22
2023/10/19 09:54:03;;;;;;;24.25;14.40;;;9.10;99.90;;;;;;5075208;28;20044;-22
2023/10/19 09:56:37;;;;;;;25.13;15.13;;;9.50;99.90;;;;;;5067846;28;20053;-22
2023/10/19 09:59:07;;;;;;;31.42;14.80;;;8.70;99.90;;;;;;5076025;28;20080;-22
2023/10/19 10:02:10;;;;;;;30.67;16.30;;;9.30;99.90;;;;;;5074705;28;20071;-22
2023/10/19 10:04:36;;;;;;;22.20;13.93;;;9.30;99.90;;;;;;5073915;28;20137;-22
2023/10/19 10:07:06;;;;;;;28.92;14.80;;;9.50;99.90;;;;;;5074152;28;20494;-22
2023/10/19 10:09:43;;;;;;;29.50;15.73;;;9.00;99.90;;;;;;5074972;28;20044;-22
2023/10/19 10:12:24;;;;;;;27.05;14.23;;;8.60;99.90;;;;;;5075732;28;20486;-21
2023/10/19 10:15:11;;;;;;;28.27;15.82;;;9.30;99.90;;;;;;5075650;28;20075;-21
2023/10/19 10:17:38;;;;;;;22.20;13.55;;;9.20;99.90;;;;;;5074862;28;20135;-22
2023/10/19 10:20:24;;;;;;;26.38;14.07;;;9.40;99.90;;;;;;5073767;28;20074;-21
2023/10/19 10:23:16;;;;;;;29.13;16.88;;;9.00;99.90;;;;;;5067069;28;20048;-22
2023/10/19 10:25:48;;;;;;;32.95;17.38;;;8.70;99.90;;;;;;5074609;28;20098;-21
2023/10/19 10:28:15;;;;;;;27.80;15.48;;;9.30;99.90;;;;;;5075135;28;20055;-22
2023/10/19 10:31:09;;;;;;;23.23;15.05;;;8.90;99.90;;;;;;5074493;28;20112;-21
2023/10/19 10:33:44;;;;;;;24.25;15.73;;;9.40;99.90;;;;;;5075257;28;20052;-22
2023/10/19 10:36:11;;;;;;;31.67;15.65;;;8.90;99.90;;;;;;5074710;28;20058;-21
2023/10/19 10:38:37;;;;;;;28.55;15.77;;;9.60;99.90;;;;;;5074390;28;20162;-22
2023/10/19 10:41:04;;;;;;;34.03;18.75;;;9.60;99.90;;;;;;5074230;28;20040;-21
2023/10/19 10:43:30;;;;;;;28.83;15.73;;;9.70;99.90;;;;;;5074268;28;20399;-21
2023/10/19 10:46:16;;;;;;;27.92;16.00;;;9.00;99.90;;;;;;5074272;28;20051;-21
2023/10/19 10:48:42;;;;;;;26.70;14.82;;;9.00;99.90;;;;;;5073224;28;20048;-21
2023/10/19 10:51:19;;;;;;;27.27;16.38;;;9.80;99.90;;;;;;5072939;28;20047;-21
2023/10/19 10:53:52;;;;;;;28.30;15.18;;;9.80;99.90;;;;;;5074293;28;20474;-22
2023/10/19 10:56:20;;;;;;;29.00;15.70;;;9.80;99.90;;;;;;5074631;28;20474;-21
2023/10/19 10:58:46;;;;;;;33.25;15.27;;;9.60;99.90;;;;;;5072838;28;20044;-21
2023/10/19 11:01:13;;;;;;;32.30;15.60;;;9.80;99.90;;;;;;5073592;28;20041;-22
2023/10/19 11:03:42;;;;;;;32.55;15.75;;;9.60;99.90;;;;;;5072986;28;20055;-22
2023/10/19 11:06:09;;;;;;;27.17;14.63;;;9.20;99.90;;;;;;5073930;28;20352;-21
2023/10/19 11:08:37;;;;;;;29.67;15.68;;;10.00;99.90;;;;;;5073924;28;20049;-22
2023/10/19 11:11:09;;;;;;;27.48;14.20;;;9.90;99.90;;;;;;5074359;28;20417;-22
2023/10/19 11:13:38;;;;;;;25.23;15.52;;;9.90;99.90;;;;;;5073951;28;20131;-22
2023/10/19 11:16:09;;;;;;;27.83;14.45;;;9.10;99.90;;;;;;5073759;28;20040;-21
2023/10/19 11:18:37;;;;;;;24.48;14.05;;;9.70;99.90;;;;;;5074232;28;20044;-22
2023/10/19 11:21:11;;;;;;;29.17;14.73;;;9.70;99.90;;;;;;5073647;28;20367;-21
2023/10/19 11:23:42;;;;;;;26.65;14.48;;;8.90;99.90;;;;;;5072751;28;20091;-21
2023/10/19 11:26:12;;;;;;;22.95;15.18;;;9.50;99.90;;;;;;5072709;28;20173;-22
2023/10/19 11:28:44;;;;;;;25.55;14.80;;;9.60;99.90;;;;;;5073983;28;20048;-21
2023/10/19 11:31:18;;;;;;;27.73;15.30;;;9.50;99.90;;;;;;5073654;28;20063;-22
2023/10/19 11:33:46;;;;;;;25.65;15.60;;;9.50;99.90;;;;;;5073595;28;20044;-21
2023/10/19 11:36:12;;;;;;;37.78;22.25;;;8.80;99.90;;;;;;5073225;28;20395;-21
2023/10/19 11:38:43;;;;;;;29.40;17.25;;;9.30;99.90;;;;;;5074141;28;20052;-22
2023/10/19 11:41:10;;;;;;;32.58;17.58;;;9.30;99.90;;;;;;5073785;28;20549;-21
2023/10/19 11:43:36;;;;;;;22.30;14.52;;;9.10;99.90;;;;;;5073540;28;20503;-22
2023/10/19 11:46:05;;;;;;;24.60;14.98;;;8.80;99.90;;;;;;5073485;28;20051;-22
2023/10/19 11:48:36;;;;;;;22.15;14.65;;;9.50;99.90;;;;;;5074305;28;20049;-21
2023/10/19 11:51:03;;;;;;;23.50;15.02;;;9.20;99.90;;;;;;5074636;28;20048;-21
2023/10/19 11:53:34;;;;;;;21.63;13.95;;;9.20;99.90;;;;;;5073429;28;20044;-21
2023/10/19 11:56:12;;;;;;;22.75;14.15;;;9.50;99.90;;;;;;5072847;28;20052;-21
2023/10/19 11:58:39;;;;;;;21.05;13.88;;;8.70;99.90;;;;;;5074006;28;20048;-21
2023/10/19 12:01:11;;;;;;;21.75;14.93;;;9.30;99.90;;;;;;5073000;28;20040;-21
2023/10/19 12:03:41;;;;;;;19.40;14.23;;;9.50;99.90;;;;;;5073300;28;20139;-21
2023/10/19 12:06:08;;;;;;;20.25;14.00;;;9.50;99.90;;;;;;5073305;28;20079;-21
2023/10/19 12:08:37;;;;;;;23.35;15.30;;;8.80;99.90;;;;;;5073317;28;20050;-21
2023/10/19 12:11:16;;;;;;;23.10;14.75;;;8.80;99.90;;;;;;5073258;28;20047;-20
2023/10/19 12:13:46;;;;;;;23.55;16.70;;;9.40;99.90;;;;;;5073220;28;20084;-21
2023/10/19 12:16:12;;;;;;;23.27;16.65;;;9.50;99.90;;;;;;5073309;28;20099;-20
2023/10/19 12:18:39;;;;;;;30.00;19.25;;;9.30;99.90;;;;;;5072026;28;20048;-20
2023/10/19 12:21:07;;;;;;;34.72;23.65;;;8.90;99.90;;;;;;5071586;28;20464;-20
2023/10/19 12:23:34;;;;;;;40.38;24.00;;;8.80;99.90;;;;;;5072494;28;20098;-21
2023/10/19 12:26:04;;;;;;;47.42;28.17;;;9.50;99.90;;;;;;5071943;28;20123;-21
2023/10/19 12:28:29;;;;;;;36.30;26.33;;;9.30;99.90;;;;;;5073325;28;20398;-21
2023/10/19 12:30:56;;;;;;;44.28;28.70;;;8.80;99.90;;;;;;5074591;28;20048;-21
2023/10/19 12:33:22;;;;;;;51.63;31.50;;;9.50;99.90;;;;;;5076750;28;20098;-21
2023/10/19 12:35:57;;;;;;;46.70;28.63;;;9.50;99.90;;;;;;5076725;28;20063;-21
2023/10/19 12:38:23;;;;;;;54.00;30.13;;;9.00;99.90;;;;;;5077576;28;20063;-21
2023/10/19 12:40:50;;;;;;;51.03;29.23;;;8.80;99.90;;;;;;5075405;28;20490;-21
2023/10/19 12:43:23;;;;;;;49.53;27.98;;;9.00;99.90;;;;;;5076618;28;20368;-21
2023/10/19 12:45:57;;;;;;;39.80;23.40;;;8.90;99.90;;;;;;5076858;28;20049;-20
2023/10/19 12:48:30;;;;;;;36.35;23.20;;;9.10;99.90;;;;;;5075877;28;20056;-21
2023/10/19 12:50:55;;;;;;;35.25;22.05;;;9.20;99.90;;;;;;5077134;28;20044;-20
2023/10/19 12:53:24;;;;;;;40.78;24.23;;;9.10;99.90;;;;;;5076428;28;20055;-20
2023/10/19 12:55:52;;;;;;;34.17;21.10;;;8.60;99.90;;;;;;5075243;28;20083;-21
2023/10/19 12:58:19;;;;;;;33.22;20.63;;;9.20;99.90;;;;;;5075672;28;20044;-20
2023/10/19 13:00:47;;;;;;;33.13;20.80;;;9.00;99.90;;;;;;5075106;28;20048;-20
2023/10/19 13:03:18;;;;;;;28.92;19.48;;;9.20;99.90;;;;;;5074632;28;20139;-20
2023/10/19 13:05:44;;;;;;;34.00;17.65;;;8.60;99.90;;;;;;5076393;28;20478;-20
2023/10/19 13:08:15;;;;;;;35.90;21.42;;;9.10;99.90;;;;;;5076429;28;20082;-21
2023/10/19 13:10:43;;;;;;;30.30;18.40;;;9.20;99.90;;;;;;5076179;28;20049;-21
2023/10/19 13:13:14;;;;;;;29.40;16.58;;;9.10;99.90;;;;;;5075941;28;20045;-21
2023/10/19 13:15:42;;;;;;;25.33;15.55;;;8.50;99.90;;;;;;5076606;28;20051;-20